createdAt,value
2019-03-23T00:00:40.151Z,102392.61
2019-03-23T00:03:15.174Z,102391.30
2019-03-23T00:05:50.331Z,102389.92
2019-03-23T00:08:24.679Z,102382.04
2019-03-23T00:10:58.770Z,102377.62
2019-03-23T00:13:32.753Z,102374.53
2019-03-23T00:16:06.887Z,102373.97
2019-03-23T00:18:40.980Z,102367.81
2019-03-23T00:21:15.052Z,102373.44
2019-03-23T00:23:49.073Z,102371.18
2019-03-23T00:26:23.059Z,102368.95
2019-03-23T00:28:57.230Z,102356.23
2019-03-23T00:31:31.317Z,102350.04
2019-03-23T00:34:05.266Z,102349.50
2019-03-23T00:36:41.801Z,102349.44
2019-03-23T00:39:15.340Z,102345.77
2019-03-23T00:41:49.762Z,102340.88
2019-03-23T00:44:23.780Z,102342.99
2019-03-23T00:47:06.089Z,102341.20
2019-03-23T00:49:40.135Z,102335.34
2019-03-23T00:52:14.309Z,102333.11
2019-03-23T00:54:48.319Z,102327.16
2019-03-23T00:57:22.362Z,102326.22
2019-03-23T01:00:03.006Z,102317.91
2019-03-23T01:02:34.595Z,102321.81
2019-03-23T01:05:09.324Z,102317.44
2019-03-23T01:07:43.857Z,102316.32
2019-03-23T01:10:18.173Z,102303.49
2019-03-23T01:12:52.337Z,102306.04
2019-03-23T01:15:27.682Z,102300.00
2019-03-23T01:18:01.917Z,102293.88
2019-03-23T01:20:36.014Z,102294.76
2019-03-23T01:23:10.299Z,102299.56
2019-03-23T01:25:47.645Z,102288.59
2019-03-23T01:28:22.404Z,102292.37
2019-03-23T01:31:21.120Z,102284.51
2019-03-23T01:33:50.620Z,102284.11
2019-03-23T01:36:33.151Z,102272.70
2019-03-23T01:39:08.661Z,102277.19
2019-03-23T01:41:48.385Z,102276.93
2019-03-23T01:44:24.410Z,102278.90
2019-03-23T01:47:23.911Z,102275.49
2019-03-23T01:50:00.852Z,102277.72
2019-03-23T01:52:40.190Z,102274.31
2019-03-23T01:55:18.808Z,102271.77
2019-03-23T01:57:55.634Z,102276.19
2019-03-23T02:00:37.326Z,102277.53
2019-03-23T02:03:12.033Z,102271.47
2019-03-23T02:05:52.364Z,102275.80
2019-03-23T02:08:32.142Z,102272.25
2019-03-23T02:11:08.212Z,102269.59
2019-03-23T02:13:50.632Z,102261.30
2019-03-23T02:16:37.018Z,102260.37
2019-03-23T02:19:13.409Z,102261.73
2019-03-23T02:21:50.593Z,102263.00
2019-03-23T02:24:25.043Z,102256.76
2019-03-23T02:27:01.486Z,102256.55
2019-03-23T02:29:49.691Z,102256.93
2019-03-23T02:32:31.782Z,102255.09
2019-03-23T02:35:21.590Z,102259.85
2019-03-23T02:37:52.668Z,102258.89
2019-03-23T02:40:30.633Z,102255.61
2019-03-23T02:43:15.162Z,102256.87
2019-03-23T02:45:51.711Z,102260.08
2019-03-23T02:48:27.113Z,102258.72
2019-03-23T02:51:13.644Z,102256.09
2019-03-23T02:53:50.419Z,102255.28
2019-03-23T02:56:24.872Z,102255.80
2019-03-23T02:59:11.720Z,102251.88
2019-03-23T03:01:48.985Z,102251.20
2019-03-23T03:04:29.382Z,102249.02
2019-03-23T03:07:04.223Z,102256.44
2019-03-23T03:09:49.150Z,102257.02
2019-03-23T03:12:29.347Z,102253.58
2019-03-23T03:15:23.209Z,102254.49
2019-03-23T03:17:53.495Z,102246.36
2019-03-23T03:23:18.928Z,102244.52
2019-03-23T03:25:55.658Z,102243.16
2019-03-23T03:28:32.430Z,102242.73
2019-03-23T03:31:07.548Z,102237.97
2019-03-23T03:34:11.905Z,102237.97
2019-03-23T03:36:29.774Z,102233.66
2019-03-23T03:39:22.700Z,102234.98
2019-03-23T03:41:48.763Z,102237.59
2019-03-23T03:44:46.690Z,102234.05
2019-03-23T03:47:32.989Z,102229.53
2019-03-23T03:50:27.536Z,102234.58
2019-03-23T03:53:13.712Z,102230.60
2019-03-23T03:55:55.405Z,102224.41
2019-03-23T03:58:43.272Z,102228.33
2019-03-23T04:01:24.797Z,102222.84
2019-03-23T04:04:04.535Z,102231.11
2019-03-23T04:06:41.389Z,102222.06
2019-03-23T04:09:23.408Z,102218.44
2019-03-23T04:12:02.490Z,102217.99
2019-03-23T04:14:38.555Z,102221.38
2019-03-23T04:17:29.490Z,102215.06
2019-03-23T04:20:07.960Z,102216.03
2019-03-23T04:22:47.669Z,102209.41
2019-03-23T04:25:35.718Z,102213.37
2019-03-23T04:28:20.391Z,102214.09
2019-03-23T04:31:11.603Z,102211.19
2019-03-23T04:33:53.562Z,102208.58
2019-03-23T04:36:31.186Z,102206.94
2019-03-23T04:39:16.034Z,102200.45
2019-03-23T04:41:50.906Z,102199.69
2019-03-23T04:44:27.629Z,102197.52
2019-03-23T04:47:06.771Z,102197.98
2019-03-23T04:49:55.963Z,102194.94
2019-03-23T04:52:45.946Z,102192.72
2019-03-23T04:56:02.973Z,102184.38
2019-03-23T05:01:30.924Z,102191.98
2019-03-23T05:04:16.690Z,102187.50
2019-03-23T05:07:27.566Z,102190.12
2019-03-23T05:10:04.942Z,102187.45
2019-03-23T05:12:41.975Z,102186.54
2019-03-23T05:15:20.541Z,102180.52
2019-03-23T05:18:00.199Z,102185.00
2019-03-23T05:20:43.421Z,102180.25
2019-03-23T05:23:31.098Z,102185.63
2019-03-23T05:26:10.784Z,102186.46
2019-03-23T05:28:47.281Z,102190.97
2019-03-23T05:35:18.378Z,102186.86
2019-03-23T05:37:52.789Z,102188.98
2019-03-23T05:40:34.138Z,102179.18
2019-03-23T05:43:10.707Z,102183.25
2019-03-23T05:45:53.646Z,102180.33
2019-03-23T05:48:28.768Z,102181.94
2019-03-23T05:51:12.194Z,102180.38
2019-03-23T05:53:48.673Z,102182.37
2019-03-23T05:56:23.044Z,102179.52
2019-03-23T05:59:00.418Z,102177.61
2019-03-23T06:01:34.959Z,102179.11
2019-03-23T06:04:13.407Z,102178.59
2019-03-23T06:06:47.986Z,102171.91
2019-03-23T06:09:26.847Z,102171.36
2019-03-23T06:12:01.611Z,102165.59
2019-03-23T06:14:41.376Z,102160.48
2019-03-23T06:17:21.361Z,102166.73
2019-03-23T06:19:58.201Z,102155.55
2019-03-23T06:22:32.503Z,102160.52
2019-03-23T06:25:08.679Z,102153.20
2019-03-23T06:27:43.491Z,102153.79
2019-03-23T06:30:20.970Z,102148.55
2019-03-23T06:33:00.173Z,102147.41
2019-03-23T06:35:36.413Z,102142.66
2019-03-23T06:38:10.887Z,102138.00
2019-03-23T06:40:48.651Z,102138.87
2019-03-23T06:43:28.641Z,102138.53
2019-03-23T06:46:25.682Z,102140.38
2019-03-23T06:49:45.373Z,102143.93
2019-03-23T06:52:38.658Z,102142.69
2019-03-23T06:55:22.779Z,102131.78
2019-03-23T06:58:06.680Z,102130.48
2019-03-23T07:00:52.327Z,102127.88
2019-03-23T07:03:32.796Z,102127.44
2019-03-23T07:06:07.139Z,102129.20
2019-03-23T07:08:44.166Z,102134.48
2019-03-23T07:11:29.687Z,102137.14
2019-03-23T07:14:14.130Z,102139.77
2019-03-23T07:16:49.056Z,102135.42
2019-03-23T07:19:23.355Z,102122.66
2019-03-23T07:22:03.408Z,102108.60
2019-03-23T07:24:42.304Z,102111.25
2019-03-23T07:27:22.058Z,102103.34
2019-03-23T07:30:08.517Z,102097.16
2019-03-23T07:32:46.153Z,102102.38
2019-03-23T07:35:24.573Z,102095.77
2019-03-23T07:38:10.779Z,102101.83
2019-03-23T07:40:42.316Z,102099.17
2019-03-23T07:43:18.417Z,102092.14
2019-03-23T07:46:06.580Z,102077.55
2019-03-23T07:48:38.864Z,102085.34
2019-03-23T07:51:14.479Z,102080.42
2019-03-23T07:53:50.005Z,102083.34
2019-03-23T07:56:24.080Z,102082.53
2019-03-23T07:58:59.721Z,102079.89
2019-03-23T08:01:39.869Z,102079.48
2019-03-23T08:04:21.726Z,102080.62
2019-03-23T08:06:57.380Z,102072.98
2019-03-23T08:09:37.929Z,102070.28
2019-03-23T08:12:12.699Z,102072.94
2019-03-23T08:14:48.251Z,102061.85
2019-03-23T08:17:26.639Z,102063.98
2019-03-23T08:20:05.953Z,102069.09
2019-03-23T08:22:41.557Z,102064.41
2019-03-23T08:25:18.902Z,102069.11
2019-03-23T08:27:53.390Z,102070.05
2019-03-23T08:30:35.774Z,102071.17
2019-03-23T08:33:10.867Z,102069.16
2019-03-23T08:35:45.881Z,102061.88
2019-03-23T08:38:23.331Z,102055.35
2019-03-23T08:40:57.395Z,102058.62
2019-03-23T08:43:36.655Z,102057.05
2019-03-23T08:46:18.427Z,102056.66
2019-03-23T08:48:52.479Z,102057.23
2019-03-23T08:52:03.471Z,102053.30
2019-03-23T08:54:45.479Z,102053.01
2019-03-23T08:57:16.776Z,102049.16
2019-03-23T08:59:50.909Z,102050.81
2019-03-23T09:02:25.147Z,102050.63
2019-03-23T09:05:04.789Z,102047.38
2019-03-23T09:08:02.971Z,102040.88
2019-03-23T09:10:17.620Z,102034.84
2019-03-23T09:12:51.576Z,102028.72
2019-03-23T09:15:25.513Z,102025.48
2019-03-23T09:17:59.529Z,102021.00
2019-03-23T09:20:36.386Z,102017.03
2019-03-23T09:23:10.378Z,102013.24
2019-03-23T09:25:45.693Z,102008.36
2019-03-23T09:28:19.910Z,102008.20
2019-03-23T09:30:55.335Z,102004.35
2019-03-23T09:33:29.860Z,102001.36
2019-03-23T09:36:03.970Z,101988.45
2019-03-23T09:38:38.015Z,101989.42
2019-03-23T09:41:11.954Z,101984.66
2019-03-23T09:43:45.948Z,101985.75
2019-03-23T09:46:19.891Z,101979.89
2019-03-23T09:48:54.379Z,101979.11
2019-03-23T09:51:29.336Z,101975.23
2019-03-23T09:54:03.386Z,101975.70
2019-03-23T09:56:55.236Z,101974.62
2019-03-23T09:59:44.720Z,101979.37
2019-03-23T10:03:24.423Z,101971.84
2019-03-23T10:06:56.374Z,101976.52
2019-03-23T10:09:45.015Z,101971.16
2019-03-23T10:16:47.884Z,101965.95
2019-03-23T10:23:00.678Z,101967.52
2019-03-23T10:29:02.508Z,101960.88
2019-03-23T10:31:44.850Z,101949.08
2019-03-23T10:34:22.066Z,101948.31
2019-03-23T10:37:01.162Z,101948.92
2019-03-23T10:39:37.807Z,101949.70
2019-03-23T10:42:16.296Z,101938.97
2019-03-23T10:44:50.849Z,101937.47
2019-03-23T10:47:27.456Z,101936.84
2019-03-23T10:50:03.545Z,101935.75
2019-03-23T10:52:40.038Z,101934.33
2019-03-23T10:55:15.140Z,101927.95
2019-03-23T10:57:51.195Z,101928.61
2019-03-23T11:00:27.718Z,101921.22
2019-03-23T11:03:05.398Z,101925.34
2019-03-23T11:05:40.127Z,101916.05
2019-03-23T11:08:17.400Z,101918.48
2019-03-23T11:10:51.411Z,101913.86
2019-03-23T11:13:25.317Z,101908.89
2019-03-23T11:15:59.368Z,101918.98
2019-03-23T11:18:34.080Z,101919.47
2019-03-23T11:21:08.125Z,101920.95
2019-03-23T11:23:42.456Z,101919.56
2019-03-23T11:26:16.573Z,101920.31
2019-03-23T11:28:50.583Z,101917.17
2019-03-23T11:31:24.713Z,101913.49
2019-03-23T11:33:58.811Z,101909.71
2019-03-23T11:36:32.941Z,101904.70
2019-03-23T11:39:08.322Z,101900.12
2019-03-23T11:41:42.594Z,101900.16
2019-03-23T11:44:16.604Z,101903.30
2019-03-23T11:46:50.703Z,101898.81
2019-03-23T11:49:24.706Z,101893.80
2019-03-23T11:51:58.711Z,101892.72
2019-03-23T11:54:32.725Z,101898.84
2019-03-23T11:57:07.714Z,101894.89
2019-03-23T11:59:41.696Z,101878.24
2019-03-23T12:02:15.743Z,101875.52
2019-03-23T12:04:49.737Z,101863.39
2019-03-23T12:07:23.738Z,101859.59
2019-03-23T12:09:57.737Z,101863.27
2019-03-23T12:12:31.760Z,101850.19
2019-03-23T12:15:06.164Z,101851.14
2019-03-23T12:17:40.104Z,101844.30
2019-03-23T12:20:14.738Z,101842.01
2019-03-23T12:22:48.804Z,101839.55
2019-03-23T12:25:22.919Z,101840.25
2019-03-23T12:27:57.076Z,101840.52
2019-03-23T12:30:31.120Z,101833.82
2019-03-23T12:33:06.231Z,101830.59
2019-03-23T12:35:42.466Z,101828.12
2019-03-23T12:38:25.280Z,101819.08
2019-03-23T12:41:09.947Z,101826.22
2019-03-23T12:43:36.640Z,101825.94
2019-03-23T12:46:11.603Z,101817.38
2019-03-23T12:48:51.870Z,101817.38
2019-03-23T12:51:35.011Z,101813.89
2019-03-23T12:54:21.438Z,101810.80
2019-03-23T12:56:59.013Z,101814.48
2019-03-23T12:59:38.010Z,101807.95
2019-03-23T13:02:12.413Z,101805.37
2019-03-23T13:04:48.943Z,101801.58
2019-03-23T13:07:28.090Z,101790.27
2019-03-23T13:10:02.493Z,101789.09
2019-03-23T13:12:39.127Z,101792.84
2019-03-23T13:15:18.101Z,101793.90
2019-03-23T13:17:58.075Z,101788.77
2019-03-23T13:20:38.126Z,101778.87
2019-03-23T13:23:15.319Z,101781.34
2019-03-23T13:26:00.414Z,101779.09
2019-03-23T13:28:39.746Z,101773.21
2019-03-23T13:31:24.740Z,101774.10
2019-03-23T13:34:01.104Z,101770.03
2019-03-23T13:36:36.728Z,101766.88
2019-03-23T13:39:13.986Z,101764.95
2019-03-23T13:41:52.409Z,101764.25
2019-03-23T13:44:29.464Z,101762.11
2019-03-23T13:47:03.506Z,101752.11
2019-03-23T13:49:37.585Z,101748.31
2019-03-23T13:52:14.571Z,101756.33
2019-03-23T13:54:48.573Z,101753.13
2019-03-23T13:57:24.991Z,101752.20
2019-03-23T14:00:01.720Z,101748.96
2019-03-23T14:02:37.372Z,101743.07
2019-03-23T14:05:16.360Z,101742.04
2019-03-23T14:07:48.315Z,101739.75
2019-03-23T14:10:22.557Z,101745.75
2019-03-23T14:12:56.788Z,101741.13
2019-03-23T14:15:36.078Z,101733.12
2019-03-23T14:18:13.561Z,101735.41
2019-03-23T14:20:52.246Z,101727.56
2019-03-23T14:23:32.801Z,101723.77
2019-03-23T14:26:09.501Z,101726.02
2019-03-23T14:28:57.006Z,101728.31
2019-03-23T14:31:31.617Z,101729.59
2019-03-23T14:34:29.614Z,101722.58
2019-03-23T14:37:07.114Z,101728.52
2019-03-23T14:39:46.703Z,101723.27
2019-03-23T14:42:21.688Z,101713.13
2019-03-23T14:44:57.007Z,101708.17
2019-03-23T14:47:32.956Z,101710.09
2019-03-23T14:50:11.423Z,101707.04
2019-03-23T14:52:45.600Z,101711.64
2019-03-23T14:55:19.678Z,101710.51
2019-03-23T14:57:54.344Z,101702.10
2019-03-23T15:00:35.783Z,101707.03
2019-03-23T15:03:09.915Z,101709.05
2019-03-23T15:05:43.945Z,101702.30
2019-03-23T15:08:18.018Z,101703.51
2019-03-23T15:10:52.090Z,101704.38
2019-03-23T15:13:26.004Z,101701.32
2019-03-23T15:16:00.003Z,101700.06
2019-03-23T15:18:34.095Z,101696.59
2019-03-23T15:21:10.226Z,101695.00
2019-03-23T15:23:44.240Z,101696.45
2019-03-23T15:26:18.162Z,101693.50
2019-03-23T15:28:52.439Z,101691.02
2019-03-23T15:31:26.972Z,101695.13
2019-03-23T15:34:01.314Z,101694.98
2019-03-23T15:36:36.010Z,101694.28
2019-03-23T15:39:10.397Z,101685.73
2019-03-23T15:41:44.350Z,101689.59
2019-03-23T15:44:18.259Z,101692.03
2019-03-23T15:46:52.292Z,101697.98
2019-03-23T15:49:27.595Z,101696.37
2019-03-23T15:52:01.543Z,101690.02
2019-03-23T15:54:35.535Z,101699.88
2019-03-23T15:57:09.884Z,101699.64
2019-03-23T15:59:43.794Z,101704.78
2019-03-23T16:02:17.817Z,101704.03
2019-03-23T16:04:52.258Z,101703.25
2019-03-23T16:07:29.680Z,101704.39
2019-03-23T16:10:01.679Z,101702.19
2019-03-23T16:12:37.654Z,101707.84
2019-03-23T16:15:12.833Z,101712.20
2019-03-23T16:17:46.806Z,101708.37
2019-03-23T16:20:20.687Z,101712.47
2019-03-23T16:22:54.642Z,101720.38
2019-03-23T16:25:28.552Z,101719.72
2019-03-23T16:28:02.923Z,101723.06
2019-03-23T16:30:36.894Z,101724.66
2019-03-23T16:33:10.920Z,101722.83
2019-03-23T16:35:44.955Z,101729.95
2019-03-23T16:38:18.875Z,101736.92
2019-03-23T16:40:52.855Z,101748.32
2019-03-23T16:43:26.863Z,101756.85
2019-03-23T16:46:00.834Z,101759.20
2019-03-23T16:48:34.879Z,101758.35
2019-03-23T16:51:09.052Z,101767.81
2019-03-23T16:53:42.988Z,101773.08
2019-03-23T16:56:16.976Z,101780.47
2019-03-23T16:58:50.991Z,101778.73
2019-03-23T17:01:25.054Z,101774.98
2019-03-23T17:03:59.005Z,101781.45
2019-03-23T17:06:33.018Z,101784.64
2019-03-23T17:09:07.383Z,101798.05
2019-03-23T17:11:41.397Z,101795.82
2019-03-23T17:14:15.689Z,101796.40
2019-03-23T17:16:49.581Z,101805.55
2019-03-23T17:19:23.411Z,101812.91
2019-03-23T17:21:57.600Z,101814.09
2019-03-23T17:24:31.670Z,101819.98
2019-03-23T17:27:06.050Z,101828.62
2019-03-23T17:29:50.398Z,101835.12
2019-03-23T17:32:24.749Z,101839.61
2019-03-23T17:34:58.769Z,101848.90
2019-03-23T17:37:32.758Z,101856.65
2019-03-23T17:40:06.792Z,101866.75
2019-03-23T17:42:40.759Z,101872.51
2019-03-23T17:45:14.729Z,101867.39
2019-03-23T17:47:48.790Z,101871.59
2019-03-23T17:50:22.819Z,101876.80
2019-03-23T17:52:56.803Z,101889.40
2019-03-23T17:55:30.883Z,101887.42
2019-03-23T17:58:04.925Z,101887.29
2019-03-23T18:00:38.977Z,101896.95
2019-03-23T18:03:13.607Z,101908.12
2019-03-23T18:05:48.093Z,101896.42
2019-03-23T18:08:23.271Z,101910.52
2019-03-23T18:10:58.034Z,101912.03
2019-03-23T18:13:32.848Z,101918.41
2019-03-23T18:16:06.943Z,101923.73
2019-03-23T18:18:40.919Z,101924.19
2019-03-23T18:21:15.379Z,101926.91
2019-03-23T18:23:49.920Z,101942.37
2019-03-23T18:26:24.026Z,101933.75
2019-03-23T18:29:00.240Z,101940.38
2019-03-23T18:31:34.588Z,101939.17
2019-03-23T18:34:09.961Z,101945.82
2019-03-23T18:36:43.999Z,101944.09
2019-03-23T18:39:19.657Z,101948.91
2019-03-23T18:41:53.725Z,101954.20
2019-03-23T18:44:28.207Z,101948.05
2019-03-23T18:47:02.344Z,101958.22
2019-03-23T18:49:36.378Z,101959.58
2019-03-23T18:52:10.275Z,101962.72
2019-03-23T18:54:44.322Z,101967.50
2019-03-23T18:57:20.664Z,101964.85
2019-03-23T18:59:54.777Z,101974.09
2019-03-23T19:02:28.833Z,101973.17
2019-03-23T19:05:02.895Z,101981.52
2019-03-23T19:07:38.002Z,101982.37
2019-03-23T19:10:14.538Z,101985.90
2019-03-23T19:12:50.073Z,101957.88
2019-03-23T19:15:28.262Z,101989.05
2019-03-23T19:18:02.265Z,101993.42
2019-03-23T19:20:36.646Z,101999.58
2019-03-23T19:23:13.912Z,102006.20
2019-03-23T19:25:53.284Z,102004.84
2019-03-23T19:28:33.652Z,102011.45
2019-03-23T19:31:03.273Z,102010.59
2019-03-23T19:33:38.629Z,102018.47
2019-03-23T19:36:13.815Z,102021.59
2019-03-23T19:38:48.284Z,102014.98
2019-03-23T19:41:22.188Z,102024.64
2019-03-23T19:43:56.223Z,102021.16
2019-03-23T19:46:31.885Z,102024.67
2019-03-23T19:49:05.884Z,102022.48
2019-03-23T19:51:40.363Z,102024.25
2019-03-23T19:54:14.816Z,102034.36
2019-03-23T19:56:48.811Z,102034.78
2019-03-23T19:59:24.468Z,102034.34
2019-03-23T20:01:58.611Z,102045.33
2019-03-23T20:04:34.149Z,102046.21
2019-03-23T20:07:08.392Z,102045.75
2019-03-23T20:09:42.510Z,102044.00
2019-03-23T20:12:19.782Z,102044.88
2019-03-23T20:14:54.366Z,102046.20
2019-03-23T20:17:28.888Z,102043.14
2019-03-23T20:20:02.961Z,102047.09
2019-03-23T20:22:38.567Z,102049.28
2019-03-23T20:25:13.693Z,102051.02
2019-03-23T20:27:47.916Z,102059.80
2019-03-23T20:30:23.493Z,102064.63
2019-03-23T20:32:57.633Z,102065.52
2019-03-23T20:35:32.276Z,102066.39
2019-03-23T20:38:07.278Z,102080.03
2019-03-23T20:40:44.319Z,102076.05
2019-03-23T20:43:19.406Z,102085.27
2019-03-23T20:45:56.067Z,102080.01
2019-03-23T20:48:30.200Z,102080.42
2019-03-23T20:51:04.355Z,102086.56
2019-03-23T20:53:39.307Z,102079.53
2019-03-23T20:56:15.279Z,102080.83
2019-03-23T20:58:49.322Z,102079.05
2019-03-23T21:01:23.248Z,102075.95
2019-03-23T21:03:57.189Z,102067.58
2019-03-23T21:06:31.155Z,102077.69
2019-03-23T21:09:05.802Z,102075.02
2019-03-23T21:11:40.726Z,102076.80
2019-03-23T21:14:20.090Z,102078.53
2019-03-23T21:16:50.799Z,102078.11
2019-03-23T21:19:24.580Z,102075.42
2019-03-23T21:21:58.549Z,102077.59
2019-03-23T21:24:32.351Z,102092.00
2019-03-23T21:27:06.152Z,102091.55
2019-03-23T21:29:41.228Z,102089.34
2019-03-23T21:32:15.281Z,102091.52
2019-03-23T21:34:49.181Z,102083.61
2019-03-23T21:37:23.099Z,102081.84
2019-03-23T21:39:57.487Z,102086.61
2019-03-23T21:42:31.512Z,102086.61
2019-03-23T21:45:05.766Z,102088.36
2019-03-23T21:47:39.605Z,102091.30
2019-03-23T21:50:13.411Z,102090.42
2019-03-23T21:52:47.311Z,102086.91
2019-03-23T21:55:21.187Z,102091.20
2019-03-23T21:57:55.318Z,102088.98
2019-03-23T22:00:38.224Z,102082.89
2019-03-23T22:03:12.059Z,102094.70
2019-03-23T22:05:45.991Z,102098.66
2019-03-23T22:08:19.932Z,102096.45
2019-03-23T22:10:53.806Z,102095.57
2019-03-23T22:13:27.642Z,102102.58
2019-03-23T22:16:01.560Z,102102.08
2019-03-23T22:18:35.379Z,102097.66
2019-03-23T22:21:10.003Z,102111.27
2019-03-23T22:23:43.899Z,102103.34
2019-03-23T22:26:17.859Z,102102.91
2019-03-23T22:28:51.714Z,102103.77
2019-03-23T22:31:25.609Z,102113.38
2019-03-23T22:33:59.488Z,102105.97
2019-03-23T22:36:33.450Z,102107.25
2019-03-23T22:39:08.503Z,102103.73
2019-03-23T22:41:42.376Z,102105.42
2019-03-23T22:44:16.320Z,102107.58
2019-03-23T22:46:50.144Z,102109.77
2019-03-23T22:49:23.961Z,102114.55
2019-03-23T22:51:57.844Z,102116.25
2019-03-23T22:54:31.634Z,102119.34
2019-03-23T22:57:05.421Z,102121.13
2019-03-23T22:59:39.388Z,102118.07
2019-03-23T23:02:13.163Z,102125.91
2019-03-23T23:04:47.094Z,102126.68
2019-03-23T23:07:20.895Z,102126.68
2019-03-23T23:09:54.808Z,102130.27
2019-03-23T23:12:28.600Z,102129.78
2019-03-23T23:15:04.775Z,102130.14
2019-03-23T23:17:37.941Z,102131.06
2019-03-23T23:20:11.858Z,102129.66
2019-03-23T23:22:45.624Z,102132.19
2019-03-23T23:25:19.542Z,102130.85
2019-03-23T23:27:54.162Z,102131.28
2019-03-23T23:30:28.046Z,102129.48
2019-03-23T23:33:01.973Z,102129.92
2019-03-23T23:35:35.865Z,102134.27
2019-03-23T23:38:09.647Z,102128.59
2019-03-23T23:40:44.538Z,102132.01
2019-03-23T23:43:18.412Z,102137.26
2019-03-23T23:45:52.247Z,102141.17
2019-03-23T23:48:26.482Z,102140.27
2019-03-23T23:51:00.320Z,102138.52
2019-03-23T23:53:34.206Z,102143.36
2019-03-23T23:56:08.015Z,102143.77
2019-03-23T23:58:42.278Z,102140.73
